createdAt,value
2022-10-18T00:02:14.050Z,14.72
2022-10-18T00:04:40.605Z,14.69
2022-10-18T00:07:07.642Z,14.73
2022-10-18T00:09:34.271Z,14.71
2022-10-18T00:12:00.899Z,14.71
2022-10-18T00:14:27.489Z,14.62
2022-10-18T00:16:54.220Z,14.69
2022-10-18T00:19:20.841Z,14.55
2022-10-18T00:21:51.434Z,14.48
2022-10-18T00:24:18.128Z,14.51
2022-10-18T00:26:44.733Z,14.43
2022-10-18T00:29:14.884Z,14.38
2022-10-18T00:31:43.435Z,14.39
2022-10-18T00:34:12.981Z,14.36
2022-10-18T00:36:39.975Z,14.32
2022-10-18T00:39:07.854Z,14.33
2022-10-18T00:41:36.458Z,14.41
2022-10-18T00:44:13.597Z,14.40
2022-10-18T00:46:42.864Z,14.31
2022-10-18T00:49:35.619Z,14.34
2022-10-18T00:52:11.003Z,14.37
2022-10-18T00:54:40.771Z,14.32
2022-10-18T00:57:08.206Z,14.33
2022-10-18T00:59:36.061Z,14.26
2022-10-18T01:02:03.506Z,14.31
2022-10-18T01:04:30.211Z,14.23
2022-10-18T01:07:27.778Z,14.35
2022-10-18T01:10:26.968Z,14.35
2022-10-18T01:13:25.971Z,14.28
2022-10-18T01:16:01.995Z,14.18
2022-10-18T01:18:48.675Z,14.12
2022-10-18T01:21:40.684Z,14.10
2022-10-18T01:24:41.299Z,14.03
2022-10-18T01:27:40.615Z,13.98
2022-10-18T01:30:37.930Z,13.97
2022-10-18T01:33:10.294Z,13.98
2022-10-18T01:35:45.591Z,13.97
2022-10-18T01:38:17.946Z,13.90
2022-10-18T01:40:47.869Z,13.89
2022-10-18T01:43:16.633Z,13.87
2022-10-18T01:45:43.170Z,13.95
2022-10-18T01:48:11.703Z,13.89
2022-10-18T01:50:38.332Z,13.89
2022-10-18T01:53:04.859Z,13.90
2022-10-18T01:55:42.678Z,13.91
2022-10-18T01:58:29.513Z,13.80
2022-10-18T02:01:08.603Z,13.88
2022-10-18T02:03:40.925Z,13.91
2022-10-18T02:06:22.996Z,13.98
2022-10-18T02:08:56.841Z,13.98
2022-10-18T02:11:23.665Z,14.01
2022-10-18T02:13:53.363Z,13.96
2022-10-18T02:16:40.571Z,14.02
2022-10-18T02:19:20.786Z,14.03
2022-10-18T02:21:50.055Z,14.04
2022-10-18T02:24:19.530Z,14.05
2022-10-18T02:26:46.135Z,14.01
2022-10-18T02:29:13.134Z,13.96
2022-10-18T02:31:53.010Z,13.97
2022-10-18T02:34:27.695Z,13.88
2022-10-18T02:36:59.000Z,13.87
2022-10-18T02:39:32.846Z,13.77
2022-10-18T02:42:00.033Z,13.79
2022-10-18T02:44:26.912Z,13.74
2022-10-18T02:46:53.743Z,13.79
2022-10-18T02:49:20.382Z,13.78
2022-10-18T02:51:46.958Z,13.68
2022-10-18T02:54:13.568Z,13.56
2022-10-18T02:56:40.278Z,13.62
2022-10-18T02:59:07.486Z,13.54
2022-10-18T03:01:36.301Z,13.56
2022-10-18T03:04:03.890Z,13.54
2022-10-18T03:06:30.797Z,13.54
2022-10-18T03:08:57.621Z,13.51
2022-10-18T03:11:24.323Z,13.49
2022-10-18T03:13:51.142Z,13.47
2022-10-18T03:16:17.758Z,13.46
2022-10-18T03:18:44.461Z,13.36
2022-10-18T03:21:11.022Z,13.43
2022-10-18T03:23:37.685Z,13.34
2022-10-18T03:26:04.492Z,13.39
2022-10-18T03:28:31.326Z,13.37
2022-10-18T03:31:02.506Z,13.34
2022-10-18T03:33:29.235Z,13.29
2022-10-18T03:35:55.897Z,13.33
2022-10-18T03:38:22.482Z,13.33
2022-10-18T03:40:49.131Z,13.30
2022-10-18T03:43:15.802Z,13.12
2022-10-18T03:45:42.653Z,13.03
2022-10-18T03:48:09.175Z,13.00
2022-10-18T03:50:35.797Z,12.97
2022-10-18T03:53:02.543Z,12.96
2022-10-18T03:55:29.215Z,12.99
2022-10-18T03:57:55.801Z,12.95
2022-10-18T04:00:22.921Z,12.95
2022-10-18T04:02:52.069Z,13.03
2022-10-18T04:05:24.408Z,13.00
2022-10-18T04:07:51.007Z,12.97
2022-10-18T04:10:18.900Z,12.89
2022-10-18T04:12:45.573Z,12.93
2022-10-18T04:15:12.388Z,12.95
2022-10-18T04:17:38.972Z,12.84
2022-10-18T04:20:06.749Z,12.91
2022-10-18T04:22:33.373Z,12.82
2022-10-18T04:24:59.924Z,12.86
2022-10-18T04:27:26.563Z,12.86
2022-10-18T04:29:53.190Z,12.81
2022-10-18T04:32:19.748Z,12.80
2022-10-18T04:34:46.363Z,12.75
2022-10-18T04:37:12.958Z,12.74
2022-10-18T04:39:39.522Z,12.57
2022-10-18T04:42:06.107Z,12.72
2022-10-18T04:44:32.663Z,12.75
2022-10-18T04:46:59.262Z,12.76
2022-10-18T04:49:25.842Z,12.78
2022-10-18T04:51:52.429Z,12.69
2022-10-18T04:54:19.016Z,12.59
2022-10-18T04:56:45.597Z,12.64
2022-10-18T04:59:12.700Z,12.64
2022-10-18T05:01:39.471Z,12.62
2022-10-18T05:04:06.113Z,12.65
2022-10-18T05:06:32.649Z,12.73
2022-10-18T05:08:59.210Z,12.70
2022-10-18T05:11:25.830Z,12.73
2022-10-18T05:13:52.413Z,12.76
2022-10-18T05:16:19.019Z,12.93
2022-10-18T05:18:45.782Z,12.96
2022-10-18T05:21:13.610Z,13.03
2022-10-18T05:23:40.139Z,12.96
2022-10-18T05:26:07.635Z,13.05
2022-10-18T05:28:39.568Z,13.04
2022-10-18T05:31:09.858Z,13.09
2022-10-18T05:33:36.966Z,12.99
2022-10-18T05:36:04.516Z,13.04
2022-10-18T05:38:31.453Z,13.09
2022-10-18T05:40:59.087Z,13.13
2022-10-18T05:43:29.679Z,13.17
2022-10-18T05:45:56.517Z,13.19
2022-10-18T05:48:23.206Z,13.19
2022-10-18T05:50:49.758Z,13.23
2022-10-18T05:53:35.760Z,13.27
2022-10-18T05:56:03.858Z,13.37
2022-10-18T05:58:30.462Z,13.40
2022-10-18T06:01:05.344Z,13.50
2022-10-18T06:03:32.638Z,13.54
2022-10-18T06:06:10.180Z,13.65
2022-10-18T06:08:37.607Z,13.72
2022-10-18T06:11:13.958Z,13.79
2022-10-18T06:13:46.324Z,13.94
2022-10-18T06:16:14.985Z,14.05
2022-10-18T06:18:42.095Z,14.14
2022-10-18T06:21:09.606Z,14.28
2022-10-18T06:23:36.204Z,14.48
2022-10-18T06:26:04.979Z,14.71
2022-10-18T06:28:31.422Z,15.07
2022-10-18T06:30:58.366Z,15.51
2022-10-18T06:33:25.521Z,15.96
2022-10-18T06:36:00.380Z,16.18
2022-10-18T06:38:27.957Z,16.47
2022-10-18T06:40:55.636Z,16.78
2022-10-18T06:43:22.328Z,16.96
2022-10-18T06:45:49.452Z,17.12
2022-10-18T06:48:16.671Z,17.43
2022-10-18T06:50:50.304Z,17.62
2022-10-18T06:53:17.139Z,17.84
2022-10-18T06:55:43.839Z,17.99
2022-10-18T06:58:10.434Z,17.90
2022-10-18T07:00:36.989Z,18.20
2022-10-18T07:03:03.622Z,18.41
2022-10-18T07:07:58.358Z,18.87
2022-10-18T07:10:25.406Z,19.56
2022-10-18T07:12:59.240Z,20.08
2022-10-18T07:15:38.569Z,20.39
2022-10-18T07:18:05.651Z,20.65
2022-10-18T07:20:32.256Z,20.99
2022-10-18T07:22:59.172Z,21.10
2022-10-18T07:25:28.407Z,21.26
2022-10-18T07:27:57.420Z,21.48
2022-10-18T07:30:24.024Z,21.74
2022-10-18T07:32:51.870Z,21.67
2022-10-18T07:35:18.522Z,21.66
2022-10-18T07:37:45.111Z,22.30
2022-10-18T07:40:12.212Z,22.66
2022-10-18T07:42:38.867Z,23.42
2022-10-18T07:45:05.751Z,23.60
2022-10-18T07:47:35.115Z,23.45
2022-10-18T07:50:02.078Z,23.81
2022-10-18T07:52:28.645Z,24.43
2022-10-18T07:54:55.218Z,24.48
2022-10-18T07:57:40.488Z,24.22
2022-10-18T08:00:09.018Z,24.73
2022-10-18T08:02:35.608Z,24.99
2022-10-18T08:05:02.176Z,24.81
2022-10-18T08:07:28.889Z,25.31
2022-10-18T08:09:55.773Z,24.87
2022-10-18T08:12:23.112Z,25.15
2022-10-18T08:14:49.657Z,25.44
2022-10-18T08:17:16.233Z,25.43
2022-10-18T08:19:52.793Z,25.43
2022-10-18T08:22:29.305Z,25.54
2022-10-18T08:24:56.056Z,25.67
2022-10-18T08:27:26.055Z,25.36
2022-10-18T08:29:53.003Z,25.71
2022-10-18T08:32:19.569Z,26.06
2022-10-18T08:34:46.133Z,26.19
2022-10-18T08:37:12.896Z,25.73
2022-10-18T08:39:39.436Z,26.14
2022-10-18T08:42:17.858Z,26.34
2022-10-18T08:44:47.949Z,25.88
2022-10-18T08:47:52.021Z,25.88
2022-10-18T12:03:14.398Z,26.63
2022-10-18T12:05:44.693Z,26.96
2022-10-18T12:08:14.253Z,26.41
2022-10-18T12:11:04.051Z,26.53
2022-10-18T12:13:56.943Z,26.78
2022-10-18T12:16:49.523Z,27.00
2022-10-18T12:19:23.712Z,26.88
2022-10-18T12:21:56.422Z,26.57
2022-10-18T12:24:28.639Z,26.74
2022-10-18T12:26:59.729Z,27.09
2022-10-18T12:29:30.158Z,27.02
2022-10-18T12:32:07.140Z,26.48
2022-10-18T12:34:43.926Z,26.58
2022-10-18T12:37:45.255Z,26.81
2022-10-18T12:40:21.458Z,26.96
2022-10-18T12:42:50.913Z,27.08
2022-10-18T12:45:23.138Z,27.05
2022-10-18T12:47:50.262Z,27.04
2022-10-18T12:50:37.233Z,26.97
2022-10-18T12:53:28.015Z,27.03
2022-10-18T12:55:55.860Z,26.92
2022-10-18T12:58:32.096Z,26.84
2022-10-18T13:01:02.279Z,26.82
2022-10-18T13:03:39.543Z,26.74
2022-10-18T13:06:06.940Z,26.69
2022-10-18T13:08:42.169Z,26.69
2022-10-18T13:11:08.938Z,26.63
2022-10-18T13:14:17.019Z,26.71
2022-10-18T13:17:28.172Z,26.56
2022-10-18T13:20:26.113Z,26.55
2022-10-18T13:23:02.365Z,26.52
2022-10-18T13:25:41.223Z,26.52
2022-10-18T13:28:38.541Z,26.56
2022-10-18T13:31:29.986Z,26.55
2022-10-18T13:34:25.246Z,26.51
2022-10-18T13:37:03.685Z,26.48
2022-10-18T13:39:31.595Z,26.49
2022-10-18T13:41:58.243Z,26.45
2022-10-18T13:44:37.346Z,26.34
2022-10-18T13:47:04.003Z,26.28
2022-10-18T13:49:48.332Z,26.27
2022-10-18T13:52:20.809Z,26.31
2022-10-18T13:55:14.965Z,26.37
2022-10-18T13:57:47.360Z,26.27
2022-10-18T14:00:35.679Z,26.22
2022-10-18T14:03:37.525Z,26.15
2022-10-18T14:06:06.792Z,26.09
2022-10-18T14:09:25.591Z,26.08
2022-10-18T14:12:19.092Z,25.96
2022-10-18T14:15:08.435Z,25.87
2022-10-18T14:17:46.510Z,25.73
2022-10-18T14:20:29.358Z,25.78
2022-10-18T14:23:18.842Z,25.71
2022-10-18T14:25:45.919Z,25.63
2022-10-18T14:28:16.674Z,25.66
2022-10-18T14:31:06.324Z,25.61
2022-10-18T14:33:32.919Z,25.65
2022-10-18T14:36:03.874Z,25.63
2022-10-18T14:38:30.926Z,25.58
2022-10-18T14:41:22.298Z,25.50
2022-10-18T14:43:49.959Z,25.43
2022-10-18T14:46:28.969Z,25.40
2022-10-18T14:49:04.328Z,25.37
2022-10-18T14:51:35.475Z,25.27
2022-10-18T14:54:02.887Z,25.13
2022-10-18T14:56:31.966Z,25.14
2022-10-18T14:59:02.143Z,25.12
2022-10-18T15:01:32.064Z,25.10
2022-10-18T15:04:11.688Z,25.04
2022-10-18T15:06:43.802Z,24.93
2022-10-18T15:09:12.603Z,24.83
2022-10-18T15:11:41.465Z,24.82
2022-10-18T15:14:14.434Z,24.78
2022-10-18T15:16:41.406Z,24.70
2022-10-18T15:19:14.140Z,24.68
2022-10-18T15:25:06.057Z,24.57
2022-10-18T15:27:37.011Z,24.48
2022-10-18T15:30:22.854Z,24.43
2022-10-18T15:32:57.982Z,24.38
2022-10-18T15:35:32.886Z,24.29
2022-10-18T15:38:04.752Z,24.18
2022-10-18T15:40:35.268Z,24.10
2022-10-18T15:43:06.037Z,23.98
2022-10-18T15:45:45.452Z,23.92
2022-10-18T15:48:15.024Z,23.88
2022-10-18T15:50:44.258Z,23.78
2022-10-18T15:53:23.076Z,23.70
2022-10-18T15:56:08.152Z,23.62
2022-10-18T15:58:46.415Z,23.53
2022-10-18T16:01:32.518Z,23.48
2022-10-18T16:04:01.207Z,23.39
2022-10-18T16:06:27.873Z,23.32
2022-10-18T16:08:54.585Z,23.25
2022-10-18T16:11:25.848Z,23.17
2022-10-18T16:13:55.245Z,23.04
2022-10-18T16:16:27.366Z,22.96
2022-10-18T16:18:54.568Z,22.86
2022-10-18T16:21:26.399Z,22.79
2022-10-18T16:23:53.437Z,22.72
2022-10-18T16:26:21.286Z,22.63
2022-10-18T16:28:48.615Z,22.52
2022-10-18T16:31:21.749Z,22.40
2022-10-18T16:33:49.449Z,22.30
2022-10-18T16:36:20.399Z,22.19
2022-10-18T16:38:48.051Z,22.07
2022-10-18T16:41:15.936Z,21.94
2022-10-18T16:43:44.447Z,21.85
2022-10-18T16:46:16.755Z,21.76
2022-10-18T16:48:44.329Z,21.65
2022-10-18T16:51:12.935Z,21.55
2022-10-18T16:53:39.517Z,21.41
2022-10-18T16:56:13.433Z,21.29
2022-10-18T16:58:40.114Z,21.19
2022-10-18T17:01:08.963Z,21.19
2022-10-18T17:03:36.167Z,21.11
2022-10-18T17:06:03.151Z,21.10
2022-10-18T17:08:29.785Z,20.95
2022-10-18T17:10:58.699Z,20.72
2022-10-18T17:13:26.446Z,20.53
2022-10-18T17:15:53.713Z,20.29
2022-10-18T17:18:28.044Z,20.08
2022-10-18T17:20:55.272Z,19.75
2022-10-18T17:23:22.045Z,19.57
2022-10-18T17:26:04.718Z,19.36
2022-10-18T17:28:33.851Z,19.31
2022-10-18T17:31:00.456Z,19.29
2022-10-18T17:33:27.017Z,19.23
2022-10-18T17:35:53.730Z,19.15
2022-10-18T17:38:20.301Z,19.12
2022-10-18T17:40:46.846Z,19.00
2022-10-18T17:43:13.957Z,18.99
2022-10-18T17:45:48.979Z,19.00
2022-10-18T17:48:15.535Z,18.98
2022-10-18T17:50:42.394Z,18.96
2022-10-18T17:53:10.753Z,18.89
2022-10-18T17:55:37.417Z,18.82
2022-10-18T17:58:04.028Z,18.75
2022-10-18T18:00:30.682Z,18.59
2022-10-18T18:03:00.744Z,18.49
2022-10-18T18:05:32.957Z,18.44
2022-10-18T18:08:03.750Z,18.39
2022-10-18T18:10:33.136Z,18.26
2022-10-18T18:13:00.209Z,18.20
2022-10-18T18:15:26.908Z,18.14
2022-10-18T18:17:57.094Z,18.24
2022-10-18T18:20:24.803Z,18.27
2022-10-18T18:22:51.958Z,18.24
2022-10-18T18:25:18.710Z,18.25
2022-10-18T18:27:45.320Z,18.21
2022-10-18T18:30:12.117Z,18.28
2022-10-18T18:32:38.772Z,18.22
2022-10-18T18:35:05.723Z,18.25
2022-10-18T18:37:32.419Z,18.25
2022-10-18T18:39:58.951Z,18.14
2022-10-18T18:42:25.470Z,18.11
2022-10-18T18:44:52.047Z,18.11
2022-10-18T18:47:21.528Z,18.03
2022-10-18T18:49:48.561Z,17.97
2022-10-18T18:52:15.224Z,17.97
2022-10-18T18:54:41.767Z,17.91
2022-10-18T18:57:08.625Z,17.83
2022-10-18T18:59:35.364Z,17.81
2022-10-18T19:02:01.956Z,17.76
2022-10-18T19:04:29.288Z,17.77
2022-10-18T19:06:55.924Z,17.82
2022-10-18T19:09:23.039Z,17.72
2022-10-18T19:11:55.413Z,17.73
2022-10-18T19:14:24.175Z,17.68
2022-10-18T19:16:53.720Z,17.66
2022-10-18T19:19:21.505Z,17.58
2022-10-18T19:21:51.739Z,17.50
2022-10-18T19:24:19.980Z,17.37
2022-10-18T19:26:55.897Z,17.22
2022-10-18T19:29:34.894Z,17.29
2022-10-18T19:32:04.842Z,17.29
2022-10-18T19:34:32.497Z,17.23
2022-10-18T19:36:59.252Z,17.15
2022-10-18T19:39:28.211Z,17.20
2022-10-18T19:41:57.677Z,17.09
2022-10-18T19:44:27.752Z,17.14
2022-10-18T19:46:55.195Z,17.12
2022-10-18T19:49:22.208Z,17.08
2022-10-18T19:51:49.237Z,17.11
2022-10-18T19:54:16.529Z,17.09
2022-10-18T19:56:44.160Z,17.05
2022-10-18T19:59:12.077Z,17.01
2022-10-18T20:01:39.427Z,17.04
2022-10-18T20:04:08.363Z,16.98
2022-10-18T20:06:41.760Z,16.97
2022-10-18T20:09:12.393Z,16.94
2022-10-18T20:11:44.554Z,16.91
2022-10-18T20:14:11.635Z,16.81
2022-10-18T20:16:41.399Z,16.92
2022-10-18T20:19:08.132Z,16.91
2022-10-18T20:21:36.325Z,16.92
2022-10-18T20:24:07.288Z,16.86
2022-10-18T20:26:35.888Z,16.93
2022-10-18T20:29:02.632Z,16.87
2022-10-18T20:31:38.918Z,16.89
2022-10-18T20:34:12.117Z,16.84
2022-10-18T20:36:39.612Z,16.78
2022-10-18T20:39:06.799Z,16.68
2022-10-18T20:41:37.994Z,16.73
2022-10-18T20:44:10.707Z,16.69
2022-10-18T20:46:39.002Z,16.58
2022-10-18T20:49:07.857Z,16.62
2022-10-18T20:51:35.199Z,16.60
2022-10-18T20:56:34.229Z,16.55
2022-10-18T20:59:01.529Z,16.52
2022-10-18T21:01:30.693Z,16.42
2022-10-18T21:04:00.265Z,16.48
2022-10-18T21:06:28.206Z,16.46
2022-10-18T21:08:57.871Z,16.44
2022-10-18T21:11:25.179Z,16.42
2022-10-18T21:13:58.911Z,16.41
2022-10-18T21:16:26.545Z,16.40
2022-10-18T21:18:53.677Z,16.40
2022-10-18T21:21:23.111Z,16.40
2022-10-18T21:23:50.514Z,16.40
2022-10-18T21:26:26.023Z,16.38
2022-10-18T21:28:54.517Z,16.38
2022-10-18T21:31:23.917Z,16.37
2022-10-18T21:33:56.283Z,16.32
2022-10-18T21:36:24.017Z,16.31
2022-10-18T21:38:53.755Z,16.30
2022-10-18T21:41:22.620Z,16.33
2022-10-18T21:43:55.373Z,16.31
2022-10-18T21:46:23.912Z,16.31
2022-10-18T21:48:52.681Z,16.28
2022-10-18T21:51:20.720Z,16.31
2022-10-18T21:53:49.832Z,16.25
2022-10-18T21:56:21.376Z,16.21
2022-10-18T21:58:48.723Z,16.11
2022-10-18T22:01:32.139Z,16.13
2022-10-18T22:04:04.358Z,16.04
2022-10-18T22:06:40.559Z,16.04
2022-10-18T22:09:08.437Z,15.99
2022-10-18T22:11:39.309Z,16.03
2022-10-18T22:14:06.172Z,15.98
2022-10-18T22:16:32.868Z,15.92
2022-10-18T22:19:01.993Z,15.93
2022-10-18T22:21:29.119Z,15.89
2022-10-18T22:23:57.337Z,15.84
2022-10-18T22:26:27.660Z,15.92
2022-10-18T22:29:00.243Z,16.04
2022-10-18T22:31:39.195Z,16.01
2022-10-18T22:34:29.806Z,15.87
2022-10-18T22:36:56.776Z,15.87
2022-10-18T22:39:24.789Z,15.81
2022-10-18T22:41:55.820Z,15.75
2022-10-18T22:44:23.072Z,15.64
2022-10-18T22:46:49.681Z,15.69
2022-10-18T22:49:16.360Z,15.57
2022-10-18T22:51:43.203Z,15.53
2022-10-18T22:54:10.276Z,15.59
2022-10-18T22:56:36.949Z,15.44
2022-10-18T22:59:09.688Z,15.54
2022-10-18T23:01:36.496Z,15.42
2022-10-18T23:04:03.254Z,15.43
2022-10-18T23:06:32.931Z,15.50
2022-10-18T23:09:02.429Z,15.47
2022-10-18T23:11:29.517Z,15.54
2022-10-18T23:13:56.250Z,15.50
2022-10-18T23:16:25.809Z,15.36
2022-10-18T23:18:55.266Z,15.38
2022-10-18T23:21:24.346Z,15.32
2022-10-18T23:23:53.005Z,15.39
2022-10-18T23:26:22.657Z,15.37
2022-10-18T23:28:50.793Z,15.33
2022-10-18T23:31:21.541Z,15.41
2022-10-18T23:33:51.041Z,15.39
2022-10-18T23:36:18.331Z,15.39
2022-10-18T23:38:45.264Z,15.30
2022-10-18T23:41:13.615Z,15.36
2022-10-18T23:43:40.731Z,15.37
2022-10-18T23:46:07.891Z,15.26
2022-10-18T23:48:37.947Z,15.24
2022-10-18T23:51:05.333Z,15.31
2022-10-18T23:53:32.351Z,15.18
2022-10-18T23:56:07.502Z,15.23
2022-10-18T23:58:35.213Z,15.21
